sensor_id;sensor_type;location;lat;lon;timestamp;P1;durP1;ratioP1;P2;durP2;ratioP2
28007;SDS011;15333;50.010;20.020;2023-05-18T00:01:59;81.10;;;39.10;;
28007;SDS011;15333;50.010;20.020;2023-05-18T00:05:01;75.95;;;40.58;;
28007;SDS011;15333;50.010;20.020;2023-05-18T00:08:02;69.60;;;38.97;;
28007;SDS011;15333;50.010;20.020;2023-05-18T00:11:04;71.70;;;36.78;;
28007;SDS011;15333;50.010;20.020;2023-05-18T00:14:05;64.13;;;38.25;;
28007;SDS011;15333;50.010;20.020;2023-05-18T00:17:07;66.38;;;34.78;;
28007;SDS011;15333;50.010;20.020;2023-05-18T00:20:08;62.72;;;34.50;;
28007;SDS011;15333;50.010;20.020;2023-05-18T00:23:10;69.10;;;34.40;;
28007;SDS011;15333;50.010;20.020;2023-05-18T00:26:15;62.28;;;32.92;;
28007;SDS011;15333;50.010;20.020;2023-05-18T00:29:17;60.85;;;33.30;;
28007;SDS011;15333;50.010;20.020;2023-05-18T00:32:20;62.35;;;31.52;;
28007;SDS011;15333;50.010;20.020;2023-05-18T00:35:21;69.88;;;32.85;;
28007;SDS011;15333;50.010;20.020;2023-05-18T00:38:22;62.88;;;30.50;;
28007;SDS011;15333;50.010;20.020;2023-05-18T01:13:34;47.55;;;23.73;;
28007;SDS011;15333;50.010;20.020;2023-05-18T01:17:04;46.53;;;23.85;;
28007;SDS011;15333;50.010;20.020;2023-05-18T01:20:19;48.42;;;22.50;;
28007;SDS011;15333;50.010;20.020;2023-05-18T01:23:44;46.30;;;21.48;;
28007;SDS011;15333;50.010;20.020;2023-05-18T01:26:52;38.88;;;20.27;;
28007;SDS011;15333;50.010;20.020;2023-05-18T01:29:57;39.58;;;20.58;;
28007;SDS011;15333;50.010;20.020;2023-05-18T01:32:58;41.08;;;20.08;;
28007;SDS011;15333;50.010;20.020;2023-05-18T01:36:02;46.08;;;21.27;;
28007;SDS011;15333;50.010;20.020;2023-05-18T01:39:03;46.55;;;21.38;;
28007;SDS011;15333;50.010;20.020;2023-05-18T01:42:10;37.55;;;19.42;;
28007;SDS011;15333;50.010;20.020;2023-05-18T01:45:17;40.20;;;22.45;;
28007;SDS011;15333;50.010;20.020;2023-05-18T01:48:22;45.70;;;22.90;;
28007;SDS011;15333;50.010;20.020;2023-05-18T01:51:25;49.70;;;21.73;;
28007;SDS011;15333;50.010;20.020;2023-05-18T01:54:31;51.97;;;23.45;;
28007;SDS011;15333;50.010;20.020;2023-05-18T01:57:36;41.53;;;21.80;;
28007;SDS011;15333;50.010;20.020;2023-05-18T02:00:40;47.20;;;21.33;;
28007;SDS011;15333;50.010;20.020;2023-05-18T02:03:42;44.50;;;22.30;;
28007;SDS011;15333;50.010;20.020;2023-05-18T02:06:43;47.03;;;21.48;;
28007;SDS011;15333;50.010;20.020;2023-05-18T02:09:44;44.53;;;22.95;;
28007;SDS011;15333;50.010;20.020;2023-05-18T02:12:45;47.80;;;22.50;;
28007;SDS011;15333;50.010;20.020;2023-05-18T02:15:48;56.53;;;22.98;;
28007;SDS011;15333;50.010;20.020;2023-05-18T02:18:49;48.53;;;22.52;;
28007;SDS011;15333;50.010;20.020;2023-05-18T02:21:50;46.80;;;23.00;;
28007;SDS011;15333;50.010;20.020;2023-05-18T02:24:52;48.55;;;24.60;;
28007;SDS011;15333;50.010;20.020;2023-05-18T02:27:54;51.88;;;23.20;;
28007;SDS011;15333;50.010;20.020;2023-05-18T02:31:03;50.58;;;24.02;;
28007;SDS011;15333;50.010;20.020;2023-05-18T02:34:05;54.72;;;24.80;;
28007;SDS011;15333;50.010;20.020;2023-05-18T02:37:06;60.83;;;25.95;;
28007;SDS011;15333;50.010;20.020;2023-05-18T02:40:14;54.85;;;25.55;;
28007;SDS011;15333;50.010;20.020;2023-05-18T02:43:16;60.60;;;27.60;;
28007;SDS011;15333;50.010;20.020;2023-05-18T02:46:17;48.22;;;27.75;;
28007;SDS011;15333;50.010;20.020;2023-05-18T02:49:17;61.10;;;29.25;;
28007;SDS011;15333;50.010;20.020;2023-05-18T02:52:18;54.40;;;28.17;;
28007;SDS011;15333;50.010;20.020;2023-05-18T02:55:19;57.65;;;29.13;;
28007;SDS011;15333;50.010;20.020;2023-05-18T02:58:32;63.92;;;30.20;;
28007;SDS011;15333;50.010;20.020;2023-05-18T03:01:49;61.53;;;29.77;;
28007;SDS011;15333;50.010;20.020;2023-05-18T03:04:52;73.53;;;32.75;;
28007;SDS011;15333;50.010;20.020;2023-05-18T03:07:57;62.20;;;31.73;;
28007;SDS011;15333;50.010;20.020;2023-05-18T03:10:58;67.15;;;31.80;;
28007;SDS011;15333;50.010;20.020;2023-05-18T03:13:59;67.72;;;34.42;;
28007;SDS011;15333;50.010;20.020;2023-05-18T03:17:00;74.22;;;33.10;;
28007;SDS011;15333;50.010;20.020;2023-05-18T03:20:00;68.90;;;35.53;;
28007;SDS011;15333;50.010;20.020;2023-05-18T03:23:02;63.75;;;33.25;;
28007;SDS011;15333;50.010;20.020;2023-05-18T03:26:05;67.82;;;33.25;;
28007;SDS011;15333;50.010;20.020;2023-05-18T03:29:11;68.53;;;33.45;;
28007;SDS011;15333;50.010;20.020;2023-05-18T03:32:13;66.40;;;33.67;;
28007;SDS011;15333;50.010;20.020;2023-05-18T03:35:14;71.82;;;34.30;;
28007;SDS011;15333;50.010;20.020;2023-05-18T03:38:16;61.05;;;33.70;;
28007;SDS011;15333;50.010;20.020;2023-05-18T03:41:22;73.97;;;35.92;;
28007;SDS011;15333;50.010;20.020;2023-05-18T03:44:24;69.38;;;34.30;;
28007;SDS011;15333;50.010;20.020;2023-05-18T03:47:25;67.40;;;33.60;;
28007;SDS011;15333;50.010;20.020;2023-05-18T03:50:26;76.22;;;33.47;;
28007;SDS011;15333;50.010;20.020;2023-05-18T03:53:29;53.35;;;28.10;;
28007;SDS011;15333;50.010;20.020;2023-05-18T03:56:30;62.50;;;32.78;;
28007;SDS011;15333;50.010;20.020;2023-05-18T03:59:31;53.20;;;24.80;;
28007;SDS011;15333;50.010;20.020;2023-05-18T04:02:32;48.65;;;21.45;;
28007;SDS011;15333;50.010;20.020;2023-05-18T04:05:34;44.00;;;19.42;;
28007;SDS011;15333;50.010;20.020;2023-05-18T04:08:35;35.60;;;16.67;;
28007;SDS011;15333;50.010;20.020;2023-05-18T04:11:36;41.20;;;20.35;;
28007;SDS011;15333;50.010;20.020;2023-05-18T04:14:37;35.05;;;15.55;;
28007;SDS011;15333;50.010;20.020;2023-05-18T04:17:38;29.27;;;10.93;;
28007;SDS011;15333;50.010;20.020;2023-05-18T04:20:42;30.70;;;14.45;;
28007;SDS011;15333;50.010;20.020;2023-05-18T04:23:45;37.40;;;14.73;;
28007;SDS011;15333;50.010;20.020;2023-05-18T04:26:46;33.75;;;15.82;;
28007;SDS011;15333;50.010;20.020;2023-05-18T04:29:48;31.85;;;12.05;;
28007;SDS011;15333;50.010;20.020;2023-05-18T04:32:49;27.23;;;10.00;;
28007;SDS011;15333;50.010;20.020;2023-05-18T04:35:51;22.58;;;8.15;;
28007;SDS011;15333;50.010;20.020;2023-05-18T04:38:56;19.20;;;8.18;;
28007;SDS011;15333;50.010;20.020;2023-05-18T04:42:03;20.80;;;8.18;;
28007;SDS011;15333;50.010;20.020;2023-05-18T04:45:05;18.80;;;5.50;;
28007;SDS011;15333;50.010;20.020;2023-05-18T04:48:07;15.00;;;4.85;;
28007;SDS011;15333;50.010;20.020;2023-05-18T04:51:08;11.90;;;5.15;;
28007;SDS011;15333;50.010;20.020;2023-05-18T04:54:09;13.63;;;6.22;;
28007;SDS011;15333;50.010;20.020;2023-05-18T04:57:13;13.10;;;4.95;;
28007;SDS011;15333;50.010;20.020;2023-05-18T05:00:14;21.80;;;6.78;;
28007;SDS011;15333;50.010;20.020;2023-05-18T05:03:15;19.90;;;7.65;;
28007;SDS011;15333;50.010;20.020;2023-05-18T05:06:16;17.77;;;7.97;;
28007;SDS011;15333;50.010;20.020;2023-05-18T05:09:17;17.90;;;7.85;;
28007;SDS011;15333;50.010;20.020;2023-05-18T05:12:19;24.63;;;8.40;;
28007;SDS011;15333;50.010;20.020;2023-05-18T05:15:20;21.85;;;8.20;;
28007;SDS011;15333;50.010;20.020;2023-05-18T05:18:24;17.08;;;7.35;;
28007;SDS011;15333;50.010;20.020;2023-05-18T05:21:25;21.95;;;8.07;;
28007;SDS011;15333;50.010;20.020;2023-05-18T05:24:26;20.67;;;7.50;;
28007;SDS011;15333;50.010;20.020;2023-05-18T05:27:27;22.85;;;8.52;;
28007;SDS011;15333;50.010;20.020;2023-05-18T05:30:28;22.27;;;9.18;;
28007;SDS011;15333;50.010;20.020;2023-05-18T05:33:29;18.42;;;10.70;;
28007;SDS011;15333;50.010;20.020;2023-05-18T05:36:33;19.98;;;10.20;;
28007;SDS011;15333;50.010;20.020;2023-05-18T05:39:34;22.08;;;10.20;;
28007;SDS011;15333;50.010;20.020;2023-05-18T05:42:36;25.02;;;10.13;;
28007;SDS011;15333;50.010;20.020;2023-05-18T05:45:37;22.27;;;10.90;;
28007;SDS011;15333;50.010;20.020;2023-05-18T05:48:42;22.95;;;9.90;;
28007;SDS011;15333;50.010;20.020;2023-05-18T05:51:43;17.92;;;8.73;;
28007;SDS011;15333;50.010;20.020;2023-05-18T05:54:44;18.13;;;7.63;;
28007;SDS011;15333;50.010;20.020;2023-05-18T05:57:45;24.88;;;8.55;;
28007;SDS011;15333;50.010;20.020;2023-05-18T06:00:46;17.70;;;7.13;;
28007;SDS011;15333;50.010;20.020;2023-05-18T06:03:48;14.10;;;6.72;;
28007;SDS011;15333;50.010;20.020;2023-05-18T06:06:49;14.77;;;6.78;;
28007;SDS011;15333;50.010;20.020;2023-05-18T06:09:50;15.57;;;6.70;;
28007;SDS011;15333;50.010;20.020;2023-05-18T06:12:52;19.60;;;6.85;;
28007;SDS011;15333;50.010;20.020;2023-05-18T06:15:57;17.65;;;5.68;;
28007;SDS011;15333;50.010;20.020;2023-05-18T06:18:58;12.57;;;4.85;;
28007;SDS011;15333;50.010;20.020;2023-05-18T06:21:59;13.23;;;4.65;;
28007;SDS011;15333;50.010;20.020;2023-05-18T06:25:03;19.23;;;5.20;;
28007;SDS011;15333;50.010;20.020;2023-05-18T06:28:22;15.07;;;5.00;;
28007;SDS011;15333;50.010;20.020;2023-05-18T06:31:29;11.63;;;4.80;;
28007;SDS011;15333;50.010;20.020;2023-05-18T06:34:45;21.20;;;5.00;;
28007;SDS011;15333;50.010;20.020;2023-05-18T06:37:47;10.07;;;4.43;;
28007;SDS011;15333;50.010;20.020;2023-05-18T06:40:48;12.68;;;4.80;;
28007;SDS011;15333;50.010;20.020;2023-05-18T06:43:49;21.15;;;5.38;;
28007;SDS011;15333;50.010;20.020;2023-05-18T06:46:52;15.27;;;5.13;;
28007;SDS011;15333;50.010;20.020;2023-05-18T06:49:59;18.17;;;6.05;;
28007;SDS011;15333;50.010;20.020;2023-05-18T06:53:00;21.77;;;6.95;;
28007;SDS011;15333;50.010;20.020;2023-05-18T06:56:02;19.13;;;7.65;;
28007;SDS011;15333;50.010;20.020;2023-05-18T06:59:04;19.60;;;7.57;;
28007;SDS011;15333;50.010;20.020;2023-05-18T07:02:06;18.98;;;7.60;;
28007;SDS011;15333;50.010;20.020;2023-05-18T07:05:07;12.10;;;4.80;;
28007;SDS011;15333;50.010;20.020;2023-05-18T07:08:08;14.73;;;4.47;;
28007;SDS011;15333;50.010;20.020;2023-05-18T07:11:09;13.65;;;4.07;;
28007;SDS011;15333;50.010;20.020;2023-05-18T07:14:10;12.00;;;4.00;;
28007;SDS011;15333;50.010;20.020;2023-05-18T07:17:11;14.05;;;4.40;;
28007;SDS011;15333;50.010;20.020;2023-05-18T07:20:12;18.15;;;4.32;;
28007;SDS011;15333;50.010;20.020;2023-05-18T07:23:13;9.48;;;4.03;;
28007;SDS011;15333;50.010;20.020;2023-05-18T07:26:14;12.48;;;4.50;;
28007;SDS011;15333;50.010;20.020;2023-05-18T07:29:15;9.48;;;3.50;;
28007;SDS011;15333;50.010;20.020;2023-05-18T07:32:16;13.23;;;3.83;;
28007;SDS011;15333;50.010;20.020;2023-05-18T07:35:17;13.25;;;3.78;;
28007;SDS011;15333;50.010;20.020;2023-05-18T07:38:21;12.52;;;3.63;;
28007;SDS011;15333;50.010;20.020;2023-05-18T07:41:22;10.30;;;3.90;;
28007;SDS011;15333;50.010;20.020;2023-05-18T07:44:23;12.52;;;4.30;;
28007;SDS011;15333;50.010;20.020;2023-05-18T07:47:24;11.43;;;4.20;;
28007;SDS011;15333;50.010;20.020;2023-05-18T07:50:25;10.82;;;4.05;;
28007;SDS011;15333;50.010;20.020;2023-05-18T07:53:26;10.30;;;3.08;;
28007;SDS011;15333;50.010;20.020;2023-05-18T07:56:28;9.23;;;3.08;;
28007;SDS011;15333;50.010;20.020;2023-05-18T07:59:29;11.60;;;3.50;;
28007;SDS011;15333;50.010;20.020;2023-05-18T08:02:31;11.13;;;2.80;;
28007;SDS011;15333;50.010;20.020;2023-05-18T08:05:31;9.02;;;2.92;;
28007;SDS011;15333;50.010;20.020;2023-05-18T08:08:33;15.15;;;3.85;;
28007;SDS011;15333;50.010;20.020;2023-05-18T08:11:37;9.52;;;3.08;;
28007;SDS011;15333;50.010;20.020;2023-05-18T08:14:38;6.13;;;2.70;;
28007;SDS011;15333;50.010;20.020;2023-05-18T08:17:39;13.98;;;3.30;;
28007;SDS011;15333;50.010;20.020;2023-05-18T08:20:40;9.48;;;3.10;;
28007;SDS011;15333;50.010;20.020;2023-05-18T08:23:41;13.68;;;5.20;;
28007;SDS011;15333;50.010;20.020;2023-05-18T08:26:42;8.30;;;3.08;;
28007;SDS011;15333;50.010;20.020;2023-05-18T08:29:42;8.75;;;3.13;;
28007;SDS011;15333;50.010;20.020;2023-05-18T08:32:43;7.70;;;3.33;;
28007;SDS011;15333;50.010;20.020;2023-05-18T08:35:44;8.10;;;3.03;;
28007;SDS011;15333;50.010;20.020;2023-05-18T08:38:45;7.97;;;3.42;;
28007;SDS011;15333;50.010;20.020;2023-05-18T08:48:13;6.97;;;3.30;;
28007;SDS011;15333;50.010;20.020;2023-05-18T08:51:17;12.52;;;3.50;;
28007;SDS011;15333;50.010;20.020;2023-05-18T08:54:20;8.18;;;2.70;;
28007;SDS011;15333;50.010;20.020;2023-05-18T08:57:22;7.40;;;2.75;;
28007;SDS011;15333;50.010;20.020;2023-05-18T09:00:23;11.63;;;3.33;;
28007;SDS011;15333;50.010;20.020;2023-05-18T09:03:24;10.63;;;3.05;;
28007;SDS011;15333;50.010;20.020;2023-05-18T09:06:25;15.30;;;3.97;;
28007;SDS011;15333;50.010;20.020;2023-05-18T09:09:28;10.18;;;3.40;;
28007;SDS011;15333;50.010;20.020;2023-05-18T09:12:29;14.77;;;4.15;;
28007;SDS011;15333;50.010;20.020;2023-05-18T09:15:32;7.78;;;2.80;;
28007;SDS011;15333;50.010;20.020;2023-05-18T09:18:34;9.98;;;3.50;;
28007;SDS011;15333;50.010;20.020;2023-05-18T09:21:35;10.88;;;4.05;;
28007;SDS011;15333;50.010;20.020;2023-05-18T09:24:36;12.90;;;3.90;;
28007;SDS011;15333;50.010;20.020;2023-05-18T09:27:38;11.35;;;4.07;;
28007;SDS011;15333;50.010;20.020;2023-05-18T09:30:42;14.82;;;5.32;;
28007;SDS011;15333;50.010;20.020;2023-05-18T09:33:44;13.70;;;4.90;;
28007;SDS011;15333;50.010;20.020;2023-05-18T09:36:49;12.95;;;4.68;;
28007;SDS011;15333;50.010;20.020;2023-05-18T09:48:06;10.43;;;5.15;;
28007;SDS011;15333;50.010;20.020;2023-05-18T09:51:07;17.27;;;5.90;;
28007;SDS011;15333;50.010;20.020;2023-05-18T09:54:10;13.85;;;6.50;;
28007;SDS011;15333;50.010;20.020;2023-05-18T09:57:12;13.68;;;5.70;;
28007;SDS011;15333;50.010;20.020;2023-05-18T10:00:13;15.18;;;5.50;;
28007;SDS011;15333;50.010;20.020;2023-05-18T10:03:20;13.45;;;6.35;;
28007;SDS011;15333;50.010;20.020;2023-05-18T10:06:25;11.73;;;5.57;;
28007;SDS011;15333;50.010;20.020;2023-05-18T10:09:27;20.50;;;6.28;;
28007;SDS011;15333;50.010;20.020;2023-05-18T10:12:27;10.60;;;4.60;;
28007;SDS011;15333;50.010;20.020;2023-05-18T10:15:28;18.15;;;5.45;;
28007;SDS011;15333;50.010;20.020;2023-05-18T10:18:30;14.52;;;5.22;;
28007;SDS011;15333;50.010;20.020;2023-05-18T10:21:33;13.05;;;4.45;;
28007;SDS011;15333;50.010;20.020;2023-05-18T10:24:41;12.75;;;4.68;;
28007;SDS011;15333;50.010;20.020;2023-05-18T10:27:45;16.13;;;5.55;;
28007;SDS011;15333;50.010;20.020;2023-05-18T10:30:48;19.63;;;5.97;;
28007;SDS011;15333;50.010;20.020;2023-05-18T10:33:51;16.35;;;5.45;;
28007;SDS011;15333;50.010;20.020;2023-05-18T10:36:52;15.23;;;5.47;;
28007;SDS011;15333;50.010;20.020;2023-05-18T10:39:56;15.77;;;5.43;;
28007;SDS011;15333;50.010;20.020;2023-05-18T10:42:59;15.20;;;5.90;;
28007;SDS011;15333;50.010;20.020;2023-05-18T10:46:04;16.60;;;6.68;;
28007;SDS011;15333;50.010;20.020;2023-05-18T10:49:06;16.50;;;7.00;;
28007;SDS011;15333;50.010;20.020;2023-05-18T10:52:12;16.85;;;6.65;;
28007;SDS011;15333;50.010;20.020;2023-05-18T10:55:16;17.17;;;6.70;;
28007;SDS011;15333;50.010;20.020;2023-05-18T10:58:18;19.25;;;7.47;;
28007;SDS011;15333;50.010;20.020;2023-05-18T11:01:21;17.75;;;6.70;;
28007;SDS011;15333;50.010;20.020;2023-05-18T11:04:25;15.13;;;7.28;;
28007;SDS011;15333;50.010;20.020;2023-05-18T11:07:28;18.80;;;7.15;;
28007;SDS011;15333;50.010;20.020;2023-05-18T11:10:41;20.88;;;6.72;;
28007;SDS011;15333;50.010;20.020;2023-05-18T11:13:52;22.25;;;7.93;;
28007;SDS011;15333;50.010;20.020;2023-05-18T11:20:15;19.13;;;7.63;;
28007;SDS011;15333;50.010;20.020;2023-05-18T11:23:17;18.38;;;7.72;;
28007;SDS011;15333;50.010;20.020;2023-05-18T11:26:20;16.20;;;7.47;;
28007;SDS011;15333;50.010;20.020;2023-05-18T11:29:33;11.57;;;6.32;;
28007;SDS011;15333;50.010;20.020;2023-05-18T11:32:39;14.02;;;7.00;;
28007;SDS011;15333;50.010;20.020;2023-05-18T11:39:04;17.70;;;7.07;;
28007;SDS011;15333;50.010;20.020;2023-05-18T11:42:11;17.45;;;6.93;;
28007;SDS011;15333;50.010;20.020;2023-05-18T11:45:13;14.95;;;6.00;;
28007;SDS011;15333;50.010;20.020;2023-05-18T11:48:14;19.63;;;6.70;;
28007;SDS011;15333;50.010;20.020;2023-05-18T11:51:15;18.27;;;7.18;;
28007;SDS011;15333;50.010;20.020;2023-05-18T11:54:17;19.48;;;9.38;;
28007;SDS011;15333;50.010;20.020;2023-05-18T11:57:19;17.50;;;6.80;;
28007;SDS011;15333;50.010;20.020;2023-05-18T12:00:40;17.48;;;6.82;;
28007;SDS011;15333;50.010;20.020;2023-05-18T12:03:41;13.07;;;5.00;;
28007;SDS011;15333;50.010;20.020;2023-05-18T12:06:42;14.55;;;7.80;;
28007;SDS011;15333;50.010;20.020;2023-05-18T12:09:43;26.25;;;11.57;;
28007;SDS011;15333;50.010;20.020;2023-05-18T12:12:46;23.23;;;11.32;;
28007;SDS011;15333;50.010;20.020;2023-05-18T12:15:50;17.77;;;9.40;;
28007;SDS011;15333;50.010;20.020;2023-05-18T12:18:55;27.48;;;12.02;;
28007;SDS011;15333;50.010;20.020;2023-05-18T12:21:56;17.50;;;7.72;;
28007;SDS011;15333;50.010;20.020;2023-05-18T12:24:57;15.13;;;8.07;;
28007;SDS011;15333;50.010;20.020;2023-05-18T12:27:59;18.10;;;8.18;;
28007;SDS011;15333;50.010;20.020;2023-05-18T12:31:02;18.35;;;8.32;;
28007;SDS011;15333;50.010;20.020;2023-05-18T12:34:07;18.95;;;9.75;;
28007;SDS011;15333;50.010;20.020;2023-05-18T12:37:09;20.75;;;8.70;;
28007;SDS011;15333;50.010;20.020;2023-05-18T12:40:14;20.05;;;9.05;;
28007;SDS011;15333;50.010;20.020;2023-05-18T12:43:16;17.40;;;9.23;;
28007;SDS011;15333;50.010;20.020;2023-05-18T12:46:17;19.77;;;8.75;;
28007;SDS011;15333;50.010;20.020;2023-05-18T12:49:18;16.02;;;8.50;;
28007;SDS011;15333;50.010;20.020;2023-05-18T12:52:19;16.70;;;7.82;;
28007;SDS011;15333;50.010;20.020;2023-05-18T12:55:21;15.20;;;8.00;;
28007;SDS011;15333;50.010;20.020;2023-05-18T12:58:24;16.02;;;7.70;;
28007;SDS011;15333;50.010;20.020;2023-05-18T13:01:25;18.70;;;8.27;;
28007;SDS011;15333;50.010;20.020;2023-05-18T13:04:32;15.25;;;7.63;;
28007;SDS011;15333;50.010;20.020;2023-05-18T13:07:41;17.13;;;8.20;;
28007;SDS011;15333;50.010;20.020;2023-05-18T13:10:43;16.40;;;9.02;;
28007;SDS011;15333;50.010;20.020;2023-05-18T13:14:00;14.70;;;8.48;;
28007;SDS011;15333;50.010;20.020;2023-05-18T13:17:03;18.05;;;8.88;;
28007;SDS011;15333;50.010;20.020;2023-05-18T13:20:13;19.90;;;8.25;;
28007;SDS011;15333;50.010;20.020;2023-05-18T13:23:16;17.35;;;8.48;;
28007;SDS011;15333;50.010;20.020;2023-05-18T13:26:24;20.73;;;7.68;;
28007;SDS011;15333;50.010;20.020;2023-05-18T13:29:25;21.55;;;10.50;;
28007;SDS011;15333;50.010;20.020;2023-05-18T13:32:26;17.27;;;8.35;;
28007;SDS011;15333;50.010;20.020;2023-05-18T13:35:27;18.13;;;9.02;;
28007;SDS011;15333;50.010;20.020;2023-05-18T13:38:29;19.65;;;8.63;;
28007;SDS011;15333;50.010;20.020;2023-05-18T13:41:30;21.35;;;8.75;;
28007;SDS011;15333;50.010;20.020;2023-05-18T13:44:31;16.52;;;7.63;;
28007;SDS011;15333;50.010;20.020;2023-05-18T13:47:31;18.05;;;9.85;;
28007;SDS011;15333;50.010;20.020;2023-05-18T13:50:32;15.10;;;7.88;;
28007;SDS011;15333;50.010;20.020;2023-05-18T13:53:33;17.35;;;8.07;;
28007;SDS011;15333;50.010;20.020;2023-05-18T13:56:34;19.52;;;9.38;;
28007;SDS011;15333;50.010;20.020;2023-05-18T13:59:35;14.82;;;8.10;;
28007;SDS011;15333;50.010;20.020;2023-05-18T14:02:36;16.10;;;8.75;;
28007;SDS011;15333;50.010;20.020;2023-05-18T14:05:37;18.85;;;9.38;;
28007;SDS011;15333;50.010;20.020;2023-05-18T14:08:38;19.83;;;9.48;;
28007;SDS011;15333;50.010;20.020;2023-05-18T14:11:39;17.42;;;9.10;;
28007;SDS011;15333;50.010;20.020;2023-05-18T14:14:40;16.90;;;8.10;;
28007;SDS011;15333;50.010;20.020;2023-05-18T14:17:42;15.13;;;7.72;;
28007;SDS011;15333;50.010;20.020;2023-05-18T14:20:44;14.38;;;7.80;;
28007;SDS011;15333;50.010;20.020;2023-05-18T14:23:46;19.70;;;6.38;;
28007;SDS011;15333;50.010;20.020;2023-05-18T14:26:47;18.83;;;6.82;;
28007;SDS011;15333;50.010;20.020;2023-05-18T14:29:50;16.05;;;7.45;;
28007;SDS011;15333;50.010;20.020;2023-05-18T14:32:51;15.55;;;7.25;;
28007;SDS011;15333;50.010;20.020;2023-05-18T14:35:52;16.17;;;6.88;;
28007;SDS011;15333;50.010;20.020;2023-05-18T14:38:55;15.48;;;6.22;;
28007;SDS011;15333;50.010;20.020;2023-05-18T14:41:56;14.00;;;6.60;;
28007;SDS011;15333;50.010;20.020;2023-05-18T14:44:57;13.77;;;6.35;;
28007;SDS011;15333;50.010;20.020;2023-05-18T14:47:57;16.13;;;6.40;;
28007;SDS011;15333;50.010;20.020;2023-05-18T14:50:58;10.93;;;6.10;;
28007;SDS011;15333;50.010;20.020;2023-05-18T14:53:59;14.50;;;6.30;;
28007;SDS011;15333;50.010;20.020;2023-05-18T14:57:00;15.20;;;6.57;;
28007;SDS011;15333;50.010;20.020;2023-05-18T15:00:02;15.27;;;6.20;;
28007;SDS011;15333;50.010;20.020;2023-05-18T15:03:03;15.15;;;6.57;;
28007;SDS011;15333;50.010;20.020;2023-05-18T15:06:04;13.30;;;6.70;;
28007;SDS011;15333;50.010;20.020;2023-05-18T15:09:05;18.67;;;7.38;;
28007;SDS011;15333;50.010;20.020;2023-05-18T15:12:09;16.13;;;6.70;;
28007;SDS011;15333;50.010;20.020;2023-05-18T15:15:11;10.85;;;7.25;;
28007;SDS011;15333;50.010;20.020;2023-05-18T15:18:17;16.77;;;10.13;;
28007;SDS011;15333;50.010;20.020;2023-05-18T15:21:24;17.27;;;10.20;;
28007;SDS011;15333;50.010;20.020;2023-05-18T15:24:27;19.30;;;10.95;;
28007;SDS011;15333;50.010;20.020;2023-05-18T15:27:34;22.02;;;12.75;;
28007;SDS011;15333;50.010;20.020;2023-05-18T15:30:43;24.63;;;14.60;;
28007;SDS011;15333;50.010;20.020;2023-05-18T15:33:46;26.10;;;14.10;;
28007;SDS011;15333;50.010;20.020;2023-05-18T15:36:47;24.83;;;12.82;;
28007;SDS011;15333;50.010;20.020;2023-05-18T15:39:50;24.23;;;14.20;;
28007;SDS011;15333;50.010;20.020;2023-05-18T15:42:56;23.02;;;13.20;;
28007;SDS011;15333;50.010;20.020;2023-05-18T15:46:00;25.45;;;13.30;;
28007;SDS011;15333;50.010;20.020;2023-05-18T15:49:01;19.60;;;10.43;;
28007;SDS011;15333;50.010;20.020;2023-05-18T15:52:03;27.50;;;9.65;;
28007;SDS011;15333;50.010;20.020;2023-05-18T15:55:04;16.73;;;8.15;;
28007;SDS011;15333;50.010;20.020;2023-05-18T15:58:06;13.13;;;8.48;;
28007;SDS011;15333;50.010;20.020;2023-05-18T16:01:06;21.35;;;10.60;;
28007;SDS011;15333;50.010;20.020;2023-05-18T16:04:07;17.75;;;9.65;;
28007;SDS011;15333;50.010;20.020;2023-05-18T16:07:08;17.90;;;9.75;;
28007;SDS011;15333;50.010;20.020;2023-05-18T16:10:09;17.50;;;8.93;;
28007;SDS011;15333;50.010;20.020;2023-05-18T16:13:10;18.48;;;9.32;;
28007;SDS011;15333;50.010;20.020;2023-05-18T16:16:11;17.67;;;9.48;;
28007;SDS011;15333;50.010;20.020;2023-05-18T16:19:13;17.00;;;9.55;;
28007;SDS011;15333;50.010;20.020;2023-05-18T16:22:14;23.13;;;10.32;;
28007;SDS011;15333;50.010;20.020;2023-05-18T16:25:15;20.27;;;9.68;;
28007;SDS011;15333;50.010;20.020;2023-05-18T16:28:16;21.02;;;9.20;;
28007;SDS011;15333;50.010;20.020;2023-05-18T16:31:17;11.70;;;6.47;;
28007;SDS011;15333;50.010;20.020;2023-05-18T16:34:18;14.63;;;6.88;;
28007;SDS011;15333;50.010;20.020;2023-05-18T16:37:18;11.65;;;6.50;;
28007;SDS011;15333;50.010;20.020;2023-05-18T16:40:19;15.20;;;6.60;;
28007;SDS011;15333;50.010;20.020;2023-05-18T16:43:20;14.55;;;5.95;;
28007;SDS011;15333;50.010;20.020;2023-05-18T16:49:42;19.38;;;8.27;;
28007;SDS011;15333;50.010;20.020;2023-05-18T16:52:46;21.35;;;8.65;;
28007;SDS011;15333;50.010;20.020;2023-05-18T16:55:47;15.85;;;8.43;;
28007;SDS011;15333;50.010;20.020;2023-05-18T16:58:49;25.75;;;9.77;;
28007;SDS011;15333;50.010;20.020;2023-05-18T17:01:53;20.20;;;10.80;;
28007;SDS011;15333;50.010;20.020;2023-05-18T17:04:54;19.80;;;11.68;;
28007;SDS011;15333;50.010;20.020;2023-05-18T17:07:55;25.20;;;13.30;;
28007;SDS011;15333;50.010;20.020;2023-05-18T17:10:56;26.77;;;12.75;;
28007;SDS011;15333;50.010;20.020;2023-05-18T17:13:57;26.10;;;13.65;;
28007;SDS011;15333;50.010;20.020;2023-05-18T17:16:59;23.50;;;13.23;;
28007;SDS011;15333;50.010;20.020;2023-05-18T17:20:00;31.10;;;16.02;;
28007;SDS011;15333;50.010;20.020;2023-05-18T17:23:01;25.42;;;16.65;;
28007;SDS011;15333;50.010;20.020;2023-05-18T17:26:03;29.80;;;15.65;;
28007;SDS011;15333;50.010;20.020;2023-05-18T17:29:05;31.10;;;18.38;;
28007;SDS011;15333;50.010;20.020;2023-05-18T17:32:06;29.90;;;18.33;;
28007;SDS011;15333;50.010;20.020;2023-05-18T17:35:07;22.40;;;12.57;;
28007;SDS011;15333;50.010;20.020;2023-05-18T17:38:09;23.35;;;9.15;;
28007;SDS011;15333;50.010;20.020;2023-05-18T17:41:10;20.95;;;9.63;;
28007;SDS011;15333;50.010;20.020;2023-05-18T17:44:10;19.33;;;9.77;;
28007;SDS011;15333;50.010;20.020;2023-05-18T17:47:16;22.17;;;12.13;;
28007;SDS011;15333;50.010;20.020;2023-05-18T17:50:17;26.65;;;12.00;;
28007;SDS011;15333;50.010;20.020;2023-05-18T17:53:18;18.27;;;10.57;;
28007;SDS011;15333;50.010;20.020;2023-05-18T17:56:20;20.75;;;11.75;;
28007;SDS011;15333;50.010;20.020;2023-05-18T17:59:21;25.63;;;13.68;;
28007;SDS011;15333;50.010;20.020;2023-05-18T18:02:22;29.30;;;14.70;;
28007;SDS011;15333;50.010;20.020;2023-05-18T18:05:23;33.78;;;16.10;;
28007;SDS011;15333;50.010;20.020;2023-05-18T18:08:24;34.88;;;16.85;;
28007;SDS011;15333;50.010;20.020;2023-05-18T18:11:25;31.58;;;15.85;;
28007;SDS011;15333;50.010;20.020;2023-05-18T18:14:26;30.98;;;16.20;;
28007;SDS011;15333;50.010;20.020;2023-05-18T18:17:27;32.17;;;16.60;;
28007;SDS011;15333;50.010;20.020;2023-05-18T18:20:28;32.17;;;16.98;;
28007;SDS011;15333;50.010;20.020;2023-05-18T18:23:31;31.52;;;16.75;;
28007;SDS011;15333;50.010;20.020;2023-05-18T18:26:32;33.38;;;17.05;;
28007;SDS011;15333;50.010;20.020;2023-05-18T18:29:40;30.10;;;16.13;;
28007;SDS011;15333;50.010;20.020;2023-05-18T18:32:40;36.42;;;18.05;;
28007;SDS011;15333;50.010;20.020;2023-05-18T18:35:42;34.95;;;17.88;;
28007;SDS011;15333;50.010;20.020;2023-05-18T18:38:42;40.60;;;18.13;;
28007;SDS011;15333;50.010;20.020;2023-05-18T18:41:46;30.33;;;17.95;;